createdAt,value
2019-03-04T00:01:25.346Z,6.70
2019-03-04T00:03:52.957Z,6.83
2019-03-04T00:06:20.524Z,5.97
2019-03-04T00:08:48.164Z,6.77
2019-03-04T00:11:15.781Z,6.27
2019-03-04T00:13:43.377Z,6.17
2019-03-04T00:16:10.922Z,6.53
2019-03-04T00:18:38.557Z,6.50
2019-03-04T00:21:06.173Z,6.57
2019-03-04T00:23:33.852Z,6.67
2019-03-04T00:26:01.547Z,6.93
2019-03-04T00:28:29.255Z,6.97
2019-03-04T00:30:56.917Z,7.00
2019-03-04T00:33:24.595Z,5.70
2019-03-04T00:35:52.401Z,6.63
2019-03-04T00:38:19.998Z,5.50
2019-03-04T00:40:47.642Z,5.93
2019-03-04T00:43:15.369Z,6.77
2019-03-04T00:45:44.731Z,6.00
2019-03-04T00:48:12.339Z,6.60
2019-03-04T00:50:40.606Z,6.23
2019-03-04T00:53:08.257Z,6.30
2019-03-04T00:55:35.846Z,6.17
2019-03-04T00:58:03.563Z,6.00
2019-03-04T01:00:31.173Z,5.93
2019-03-04T01:02:58.850Z,5.80
2019-03-04T01:05:26.364Z,6.33
2019-03-04T01:07:54.002Z,6.17
2019-03-04T01:10:21.637Z,7.07
2019-03-04T01:12:49.294Z,6.77
2019-03-04T01:15:17.969Z,6.20
2019-03-04T01:17:45.663Z,6.17
2019-03-04T01:20:14.472Z,6.43
2019-03-04T01:22:42.108Z,6.20
2019-03-04T01:25:14.196Z,6.20
2019-03-04T01:27:41.751Z,6.07
2019-03-04T01:30:12.392Z,6.97
2019-03-04T01:32:40.002Z,7.00
2019-03-04T01:35:07.561Z,6.47
2019-03-04T01:37:35.266Z,6.73
2019-03-04T01:40:02.859Z,6.97
2019-03-04T01:42:30.455Z,6.60
2019-03-04T01:44:58.067Z,6.60
2019-03-04T01:47:25.667Z,6.17
2019-03-04T01:49:54.295Z,6.70
2019-03-04T01:52:21.911Z,6.87
2019-03-04T01:54:49.440Z,6.40
2019-03-04T01:57:17.025Z,6.73
2019-03-04T01:59:44.583Z,6.27
2019-03-04T02:02:12.184Z,6.20
2019-03-04T02:04:39.874Z,6.43
2019-03-04T02:07:07.495Z,6.63
2019-03-04T02:09:36.074Z,6.50
2019-03-04T02:12:04.113Z,6.50
2019-03-04T02:14:31.728Z,6.63
2019-03-04T02:16:59.870Z,6.83
2019-03-04T02:19:27.424Z,6.20
2019-03-04T02:21:56.624Z,6.70
2019-03-04T02:24:25.396Z,6.17
2019-03-04T02:26:54.670Z,6.27
2019-03-04T02:29:23.361Z,6.50
2019-03-04T02:31:50.967Z,6.70
2019-03-04T02:34:19.620Z,6.60
2019-03-04T02:36:47.215Z,6.20
2019-03-04T02:39:14.752Z,6.60
2019-03-04T02:41:42.398Z,6.40
2019-03-04T02:44:09.980Z,6.47
2019-03-04T02:46:37.585Z,6.37
2019-03-04T02:49:05.200Z,6.50
2019-03-04T02:51:32.781Z,6.57
2019-03-04T02:54:00.344Z,7.50
2019-03-04T02:56:29.021Z,7.27
2019-03-04T02:58:56.618Z,7.90
2019-03-04T03:01:24.351Z,7.60
2019-03-04T03:03:51.893Z,7.40
2019-03-04T03:06:19.551Z,7.70
2019-03-04T03:08:47.158Z,7.40
2019-03-04T03:11:14.754Z,7.67
2019-03-04T03:13:43.316Z,6.70
2019-03-04T03:16:10.919Z,7.30
2019-03-04T03:18:39.727Z,7.77
2019-03-04T03:21:07.351Z,6.97
2019-03-04T03:23:34.932Z,7.07
2019-03-04T03:26:02.544Z,5.83
2019-03-04T03:28:30.151Z,6.87
2019-03-04T03:30:57.752Z,6.77
2019-03-04T03:33:25.398Z,6.77
2019-03-04T03:35:52.937Z,6.33
2019-03-04T03:38:20.581Z,6.70
2019-03-04T03:40:48.131Z,6.37
2019-03-04T03:43:15.863Z,6.57
2019-03-04T03:45:43.457Z,6.73
2019-03-04T03:48:11.062Z,6.33
2019-03-04T03:50:38.617Z,6.43
2019-03-04T03:53:06.234Z,6.13
2019-03-04T03:55:33.813Z,6.30
2019-03-04T03:58:01.431Z,6.67
2019-03-04T04:00:28.989Z,5.97
2019-03-04T04:02:56.778Z,6.67
2019-03-04T04:05:24.353Z,6.47
2019-03-04T04:07:51.902Z,6.60
2019-03-04T04:10:19.703Z,6.40
2019-03-04T04:12:47.228Z,6.40
2019-03-04T04:15:15.016Z,6.70
2019-03-04T04:17:42.557Z,7.73
2019-03-04T04:20:10.469Z,7.57
2019-03-04T04:22:38.619Z,7.83
2019-03-04T04:25:06.711Z,6.97
2019-03-04T04:27:34.257Z,7.10
2019-03-04T04:30:02.102Z,7.40
2019-03-04T04:32:29.664Z,7.50
2019-03-04T04:34:57.204Z,7.23
2019-03-04T04:37:24.752Z,7.00
2019-03-04T04:39:52.328Z,6.83
2019-03-04T04:42:19.866Z,7.07
2019-03-04T04:44:47.427Z,7.40
2019-03-04T04:47:14.993Z,7.33
2019-03-04T04:49:42.606Z,8.07
2019-03-04T04:52:10.163Z,6.90
2019-03-04T04:54:37.757Z,7.73
2019-03-04T04:57:05.354Z,6.77
2019-03-04T04:59:32.946Z,7.77
2019-03-04T05:02:00.514Z,7.40
2019-03-04T05:04:28.113Z,9.63
2019-03-04T05:06:55.707Z,8.03
2019-03-04T05:09:23.302Z,8.70
2019-03-04T05:11:51.317Z,8.47
2019-03-04T05:14:18.888Z,9.30
2019-03-04T05:16:46.479Z,8.87
2019-03-04T05:19:14.057Z,9.00
2019-03-04T05:21:41.640Z,8.63
2019-03-04T05:24:10.355Z,10.33
2019-03-04T05:26:38.044Z,8.87
2019-03-04T05:29:05.739Z,8.90
2019-03-04T05:31:33.395Z,9.80
2019-03-04T05:34:01.043Z,10.07
2019-03-04T05:36:29.753Z,9.47
2019-03-04T05:38:57.544Z,11.30
2019-03-04T05:41:25.317Z,13.43
2019-03-04T05:43:54.195Z,11.97
2019-03-04T05:46:21.821Z,12.30
2019-03-04T05:48:49.502Z,12.23
2019-03-04T05:51:17.217Z,12.60
2019-03-04T05:53:44.911Z,11.87
2019-03-04T05:56:12.582Z,12.00
2019-03-04T05:58:40.191Z,11.73
2019-03-04T06:01:22.223Z,11.87
2019-03-04T06:03:50.814Z,11.17
2019-03-04T06:06:38.192Z,11.97
2019-03-04T06:09:08.240Z,11.90
2019-03-04T06:11:35.908Z,10.77
2019-03-04T06:14:05.553Z,11.73
2019-03-04T06:16:33.214Z,11.60
2019-03-04T06:19:01.028Z,12.73
2019-03-04T06:21:28.688Z,11.50
2019-03-04T06:23:56.351Z,12.07
2019-03-04T06:26:24.018Z,37.50
2019-03-04T06:28:51.653Z,14.57
2019-03-04T06:31:19.244Z,11.80
2019-03-04T06:33:46.775Z,11.97
2019-03-04T06:36:14.451Z,11.10
2019-03-04T06:38:42.009Z,10.30
2019-03-04T06:41:09.621Z,12.40
2019-03-04T06:43:37.245Z,11.20
2019-03-04T06:46:04.791Z,10.33
2019-03-04T06:48:32.438Z,9.60
2019-03-04T06:51:00.408Z,9.33
2019-03-04T06:54:01.735Z,9.40
2019-03-04T06:56:39.067Z,10.37
2019-03-04T06:59:18.734Z,9.57
2019-03-04T07:01:49.979Z,10.00
2019-03-04T07:04:55.046Z,10.03
2019-03-04T07:07:22.597Z,9.47
2019-03-04T07:09:50.206Z,9.40
2019-03-04T07:12:17.765Z,9.17
2019-03-04T07:14:45.444Z,9.17
2019-03-04T07:17:13.012Z,8.40
2019-03-04T07:19:40.671Z,9.60
2019-03-04T07:22:08.317Z,8.10
2019-03-04T07:24:35.998Z,8.13
2019-03-04T07:27:03.701Z,8.67
2019-03-04T07:29:31.430Z,8.57
2019-03-04T07:31:59.064Z,8.60
2019-03-04T07:34:26.843Z,9.97
2019-03-04T07:36:57.451Z,8.60
2019-03-04T07:39:25.137Z,8.87
2019-03-04T07:41:56.988Z,7.87
2019-03-04T07:44:24.640Z,7.83
2019-03-04T07:46:53.820Z,7.37
2019-03-04T07:49:21.515Z,7.67
2019-03-04T07:51:49.503Z,8.17
2019-03-04T07:54:17.278Z,8.40
2019-03-04T07:56:44.922Z,7.40
2019-03-04T07:59:12.604Z,8.53
2019-03-04T08:01:40.236Z,8.20
2019-03-04T08:04:07.899Z,7.37
2019-03-04T08:06:35.802Z,7.30
2019-03-04T08:09:54.480Z,8.03
2019-03-04T08:12:50.357Z,7.47
2019-03-04T08:15:17.877Z,7.13
2019-03-04T08:17:45.662Z,6.83
2019-03-04T08:20:13.655Z,6.87
2019-03-04T08:22:41.356Z,6.43
2019-03-04T08:25:16.144Z,7.03
2019-03-04T08:27:43.837Z,7.15
2019-03-04T08:30:19.375Z,7.30
2019-03-04T08:32:47.022Z,7.50
2019-03-04T08:35:14.769Z,7.80
2019-03-04T08:37:42.465Z,7.30
2019-03-04T08:40:11.124Z,7.07
2019-03-04T08:42:39.852Z,7.50
2019-03-04T08:45:08.293Z,7.53
2019-03-04T08:47:35.966Z,7.27
2019-03-04T08:50:04.777Z,7.03
2019-03-04T08:52:32.475Z,8.47
2019-03-04T08:55:00.101Z,10.50
2019-03-04T08:57:27.928Z,10.67
2019-03-04T08:59:55.585Z,7.00
2019-03-04T09:02:24.559Z,7.47
2019-03-04T09:04:52.109Z,6.80
2019-03-04T09:07:19.778Z,7.03
2019-03-04T09:09:47.484Z,7.67
2019-03-04T09:12:15.138Z,7.70
2019-03-04T09:14:44.448Z,7.97
2019-03-04T09:17:12.152Z,7.20
2019-03-04T09:19:42.608Z,6.57
2019-03-04T09:22:10.314Z,6.93
2019-03-04T09:24:37.930Z,7.43
2019-03-04T09:27:06.200Z,7.03
2019-03-04T09:29:33.857Z,7.77
2019-03-04T09:32:01.461Z,7.80
2019-03-04T09:34:29.181Z,8.30
2019-03-04T09:36:56.883Z,8.20
2019-03-04T09:39:24.623Z,8.70
2019-03-04T09:41:56.416Z,9.77
2019-03-04T09:44:24.101Z,9.50
2019-03-04T09:46:51.764Z,10.27
2019-03-04T09:49:19.289Z,10.30
2019-03-04T09:51:46.878Z,9.33
2019-03-04T09:54:14.474Z,10.40
2019-03-04T09:56:42.111Z,11.10
2019-03-04T09:59:09.642Z,11.10
2019-03-04T10:01:49.941Z,12.03
2019-03-04T10:04:57.833Z,11.10
2019-03-04T10:07:56.052Z,11.60
2019-03-04T10:10:38.347Z,10.97
2019-03-04T10:14:02.855Z,12.33
2019-03-04T10:16:52.779Z,11.97
2019-03-04T10:20:00.808Z,11.67
2019-03-04T10:22:40.711Z,12.10
2019-03-04T10:25:55.295Z,12.70
2019-03-04T10:29:04.022Z,15.40
2019-03-04T10:31:40.786Z,15.03
2019-03-04T10:34:52.183Z,16.67
2019-03-04T10:37:43.043Z,16.53
2019-03-04T10:40:46.389Z,15.33
2019-03-04T10:43:42.828Z,16.87
2019-03-04T10:46:49.900Z,17.40
2019-03-04T10:49:17.516Z,18.47
2019-03-04T10:51:45.047Z,17.37
2019-03-04T10:54:12.609Z,19.37
2019-03-04T10:56:42.371Z,17.40
2019-03-04T10:59:09.836Z,18.47
2019-03-04T11:01:37.451Z,17.87
2019-03-04T11:04:05.152Z,17.93
2019-03-04T11:06:32.742Z,17.33
2019-03-04T11:09:00.378Z,17.87
2019-03-04T11:11:30.037Z,18.10
2019-03-04T11:13:57.480Z,16.87
2019-03-04T11:16:25.052Z,16.93
2019-03-04T11:18:52.621Z,16.47
2019-03-04T11:21:23.132Z,16.90
2019-03-04T11:23:50.743Z,18.03
2019-03-04T11:26:18.313Z,17.40
2019-03-04T11:28:45.954Z,18.63
2019-03-04T11:31:13.544Z,18.57
2019-03-04T11:33:41.335Z,17.40
2019-03-04T11:36:09.034Z,17.77
2019-03-04T11:38:41.973Z,17.53
2019-03-04T11:41:12.047Z,17.33
2019-03-04T11:43:39.633Z,18.40
2019-03-04T11:46:07.314Z,17.83
2019-03-04T11:48:34.870Z,19.70
2019-03-04T11:51:02.532Z,17.43
2019-03-04T11:53:30.102Z,17.87
2019-03-04T11:55:57.725Z,18.07
2019-03-04T11:58:25.339Z,18.83
2019-03-04T12:01:12.565Z,18.30
2019-03-04T12:03:40.157Z,18.90
2019-03-04T12:06:08.071Z,18.33
2019-03-04T12:08:35.659Z,19.27
2019-03-04T12:11:03.254Z,19.33
2019-03-04T12:13:30.936Z,19.00
2019-03-04T12:15:58.598Z,18.40
2019-03-04T12:18:26.174Z,19.43
2019-03-04T12:20:54.329Z,18.73
2019-03-04T12:23:23.100Z,18.63
2019-03-04T12:25:50.795Z,19.30
2019-03-04T12:28:19.656Z,19.63
2019-03-04T12:30:47.352Z,20.97
2019-03-04T12:33:14.951Z,20.77
2019-03-04T12:35:42.760Z,20.53
2019-03-04T12:38:10.332Z,20.07
2019-03-04T12:40:37.965Z,21.07
2019-03-04T12:43:05.479Z,18.77
2019-03-04T12:45:34.682Z,17.83
2019-03-04T12:48:02.464Z,18.60
2019-03-04T12:50:30.368Z,17.53
2019-03-04T12:52:57.920Z,18.00
2019-03-04T12:55:25.600Z,17.33
2019-03-04T12:57:53.222Z,17.53
2019-03-04T13:00:21.307Z,17.33
2019-03-04T13:02:57.185Z,17.47
2019-03-04T13:05:18.581Z,16.93
2019-03-04T13:07:47.172Z,15.63
2019-03-04T13:10:15.004Z,16.57
2019-03-04T13:12:42.966Z,16.03
2019-03-04T13:15:15.729Z,15.67
2019-03-04T13:17:47.575Z,15.47
2019-03-04T13:20:15.378Z,15.47
2019-03-04T13:22:43.019Z,14.53
2019-03-04T13:25:10.644Z,14.47
2019-03-04T13:27:38.298Z,12.83
2019-03-04T13:30:08.080Z,12.67
2019-03-04T13:32:35.628Z,11.43
2019-03-04T13:35:03.822Z,11.90
2019-03-04T13:37:31.528Z,12.00
2019-03-04T13:39:59.203Z,12.13
2019-03-04T13:42:26.832Z,13.40
2019-03-04T13:44:54.451Z,13.10
2019-03-04T13:47:22.053Z,12.53
2019-03-04T13:49:49.640Z,12.53
2019-03-04T13:52:17.265Z,13.57
2019-03-04T13:54:44.822Z,13.03
2019-03-04T13:57:13.447Z,12.33
2019-03-04T13:59:41.052Z,12.00
2019-03-04T14:02:10.220Z,12.23
2019-03-04T14:04:37.843Z,12.33
2019-03-04T14:07:05.573Z,11.47
2019-03-04T14:09:33.154Z,10.90
2019-03-04T14:12:02.383Z,10.90
2019-03-04T14:14:30.003Z,8.63
2019-03-04T14:16:57.760Z,8.63
2019-03-04T14:19:26.571Z,8.83
2019-03-04T14:21:54.337Z,8.67
2019-03-04T14:24:21.860Z,6.60
2019-03-04T14:26:49.510Z,7.67
2019-03-04T14:29:17.066Z,7.40
2019-03-04T14:31:44.660Z,8.13
2019-03-04T14:34:12.228Z,7.33
2019-03-04T14:36:39.843Z,7.83
2019-03-04T14:39:12.877Z,7.70
2019-03-04T14:41:40.499Z,8.10
2019-03-04T14:44:08.119Z,7.00
2019-03-04T14:46:35.808Z,7.17
2019-03-04T14:49:03.491Z,7.90
2019-03-04T14:51:31.749Z,6.97
2019-03-04T14:53:59.315Z,7.40
2019-03-04T14:56:29.819Z,7.20
2019-03-04T14:59:10.516Z,6.83
2019-03-04T15:01:27.104Z,6.23
2019-03-04T15:03:54.663Z,6.60
2019-03-04T15:06:22.343Z,5.90
2019-03-04T15:08:49.891Z,5.60
2019-03-04T15:11:17.570Z,6.20
2019-03-04T15:13:45.117Z,6.73
2019-03-04T15:16:12.899Z,6.33
2019-03-04T15:18:40.514Z,5.30
2019-03-04T15:21:08.196Z,5.20
2019-03-04T15:23:35.796Z,4.87
2019-03-04T15:26:06.329Z,5.10
2019-03-04T15:28:33.899Z,5.60
2019-03-04T15:31:02.257Z,5.70
2019-03-04T15:33:32.022Z,5.60
2019-03-04T15:36:00.079Z,5.83
2019-03-04T15:38:27.731Z,5.17
2019-03-04T15:40:55.381Z,5.77
2019-03-04T15:43:23.222Z,5.93
2019-03-04T15:45:51.950Z,6.43
2019-03-04T15:48:22.568Z,5.57
2019-03-04T15:50:52.087Z,5.60
2019-03-04T15:53:20.028Z,4.80
2019-03-04T15:55:47.685Z,4.90
2019-03-04T15:58:15.347Z,5.33
2019-03-04T16:00:42.897Z,5.00
2019-03-04T16:03:10.543Z,5.33
2019-03-04T16:05:38.202Z,5.93
2019-03-04T16:08:07.792Z,4.73
2019-03-04T16:10:36.542Z,5.33
2019-03-04T16:13:04.850Z,5.40
2019-03-04T16:15:33.333Z,5.53
2019-03-04T16:18:02.377Z,5.60
2019-03-04T16:20:30.034Z,5.47
2019-03-04T16:22:57.922Z,4.93
2019-03-04T16:25:27.553Z,5.03
2019-03-04T16:28:01.258Z,5.30
2019-03-04T16:30:28.934Z,5.00
2019-03-04T16:32:57.063Z,5.23
2019-03-04T16:35:24.714Z,5.10
2019-03-04T16:37:52.341Z,5.17
2019-03-04T16:40:21.911Z,5.17
2019-03-04T16:42:49.583Z,5.17
2019-03-04T16:45:18.189Z,5.03
2019-03-04T16:47:46.035Z,6.50
2019-03-04T16:50:14.090Z,4.87
2019-03-04T16:52:42.103Z,5.43
2019-03-04T16:55:11.567Z,4.90
2019-03-04T16:57:39.154Z,5.63
2019-03-04T17:00:08.688Z,5.13
2019-03-04T17:02:37.042Z,5.53
2019-03-04T17:05:05.566Z,4.83
2019-03-04T17:07:33.617Z,4.77
2019-03-04T17:10:01.255Z,5.23
2019-03-04T17:12:29.042Z,5.40
2019-03-04T17:14:56.766Z,5.43
2019-03-04T17:17:24.767Z,5.33
2019-03-04T17:19:52.558Z,5.47
2019-03-04T17:22:20.289Z,5.47
2019-03-04T17:24:48.059Z,4.77
2019-03-04T17:27:15.767Z,5.40
2019-03-04T17:29:43.442Z,4.50
2019-03-04T17:32:11.357Z,4.77
2019-03-04T17:34:39.147Z,5.47
2019-03-04T17:37:07.017Z,5.53
2019-03-04T17:39:34.832Z,5.87
2019-03-04T17:42:02.709Z,5.63
2019-03-04T17:44:30.482Z,5.13
2019-03-04T17:46:58.388Z,6.00
2019-03-04T17:49:27.097Z,5.40
2019-03-04T17:51:54.744Z,5.50
2019-03-04T17:54:22.443Z,5.00
2019-03-04T17:56:53.109Z,5.93
2019-03-04T17:59:20.788Z,7.23
2019-03-04T18:01:48.446Z,5.30
2019-03-04T18:04:16.095Z,5.20
2019-03-04T18:06:43.771Z,4.90
2019-03-04T18:09:11.443Z,4.60
2019-03-04T18:11:39.257Z,5.20
2019-03-04T18:14:07.500Z,4.93
2019-03-04T18:16:35.143Z,4.83
2019-03-04T18:19:02.989Z,6.10
2019-03-04T18:21:30.592Z,5.20
2019-03-04T18:23:58.677Z,6.00
2019-03-04T18:26:57.322Z,5.00
2019-03-04T18:29:58.499Z,5.13
2019-03-04T18:33:07.054Z,5.83
2019-03-04T18:36:18.225Z,2.10
2019-03-04T18:39:34.093Z,1.90
2019-03-04T18:42:44.945Z,1.70
2019-03-04T18:45:52.939Z,1.43
2019-03-04T18:48:55.840Z,1.20
2019-03-04T18:51:23.624Z,1.20
2019-03-04T18:53:53.066Z,1.43
2019-03-04T18:56:22.189Z,1.80
2019-03-04T18:58:50.303Z,1.10
2019-03-04T19:01:18.351Z,1.27
2019-03-04T19:03:46.110Z,0.90
2019-03-04T19:06:14.281Z,2.33
2019-03-04T19:08:42.219Z,1.80
2019-03-04T19:11:09.942Z,1.70
2019-03-04T19:13:37.823Z,0.97
2019-03-04T19:16:05.738Z,1.13
2019-03-04T19:18:33.361Z,1.00
2019-03-04T19:21:01.235Z,1.00
2019-03-04T19:23:28.848Z,1.00
2019-03-04T19:25:56.610Z,1.00
2019-03-04T19:28:24.215Z,0.80
2019-03-04T19:30:51.975Z,0.90
2019-03-04T19:33:19.819Z,0.90
2019-03-04T19:35:47.594Z,0.90
2019-03-04T19:38:15.247Z,0.70
2019-03-04T19:40:42.962Z,1.00
2019-03-04T19:43:10.582Z,2.20
2019-03-04T19:45:38.296Z,0.77
2019-03-04T19:48:06.018Z,0.73
2019-03-04T19:50:37.231Z,0.60
2019-03-04T19:53:05.145Z,0.80
2019-03-04T19:55:32.825Z,0.90
2019-03-04T19:58:00.484Z,0.70
2019-03-04T20:00:29.585Z,0.77
2019-03-04T20:02:57.470Z,1.00
2019-03-04T20:05:25.298Z,0.70
2019-03-04T20:07:53.179Z,0.80
2019-03-04T20:10:24.502Z,0.70
2019-03-04T20:12:52.831Z,0.70
2019-03-04T20:15:21.461Z,0.80
2019-03-04T20:17:49.277Z,0.90
2019-03-04T20:20:17.097Z,0.60
2019-03-04T20:22:45.136Z,0.83
2019-03-04T20:25:12.878Z,0.80
2019-03-04T20:27:40.491Z,0.70
2019-03-04T20:30:09.074Z,0.87
2019-03-04T20:32:36.676Z,0.60
2019-03-04T20:35:05.801Z,0.87
2019-03-04T20:37:35.046Z,0.70
2019-03-04T20:40:03.439Z,0.70
2019-03-04T20:42:31.340Z,0.70
2019-03-04T20:44:58.992Z,0.70
2019-03-04T20:47:26.657Z,0.83
2019-03-04T20:49:54.235Z,0.83
2019-03-04T20:52:21.865Z,0.90
2019-03-04T20:54:49.576Z,0.80
2019-03-04T20:57:17.343Z,0.90
2019-03-04T20:59:45.049Z,0.80
2019-03-04T21:02:12.826Z,1.10
2019-03-04T21:04:40.491Z,1.67
2019-03-04T21:07:08.268Z,1.20
2019-03-04T21:09:35.925Z,0.90
2019-03-04T21:12:03.999Z,1.10
2019-03-04T21:14:31.632Z,1.10
2019-03-04T21:16:59.354Z,1.00
2019-03-04T21:19:27.045Z,1.23
2019-03-04T21:21:55.627Z,1.10
2019-03-04T21:24:23.325Z,1.20
2019-03-04T21:26:50.991Z,1.40
2019-03-04T21:29:53.194Z,1.00
2019-03-04T21:33:00.839Z,1.10
2019-03-04T21:36:22.372Z,1.00
2019-03-04T21:38:50.600Z,1.10
2019-03-04T21:41:46.661Z,4.03
2019-03-04T21:45:00.286Z,1.17
2019-03-04T21:47:44.500Z,1.10
2019-03-04T21:50:14.807Z,1.10
2019-03-04T21:53:10.377Z,1.13
2019-03-04T21:55:43.390Z,1.17
2019-03-04T21:58:13.681Z,0.90
2019-03-04T22:00:42.918Z,1.20
2019-03-04T22:03:16.676Z,1.30
2019-03-04T22:05:50.173Z,1.20
2019-03-04T22:08:13.989Z,1.40
2019-03-04T22:10:41.591Z,1.90
2019-03-04T22:13:09.541Z,1.93
2019-03-04T22:15:37.156Z,1.73
2019-03-04T22:18:06.017Z,1.93
2019-03-04T22:20:33.778Z,1.70
2019-03-04T22:23:01.538Z,1.90
2019-03-04T22:25:29.140Z,1.60
2019-03-04T22:27:56.890Z,1.53
2019-03-04T22:30:24.673Z,1.70
2019-03-04T22:32:52.486Z,1.40
2019-03-04T22:35:20.879Z,1.80
2019-03-04T22:37:48.584Z,1.70
2019-03-04T22:40:18.461Z,1.63
2019-03-04T22:42:47.695Z,1.77
2019-03-04T22:45:16.478Z,1.80
2019-03-04T22:47:45.897Z,1.80
2019-03-04T22:50:14.363Z,1.80
2019-03-04T22:52:41.982Z,2.07
2019-03-04T22:55:12.462Z,1.90
2019-03-04T22:57:40.145Z,1.70
2019-03-04T23:01:03.077Z,1.73
2019-03-04T23:03:31.115Z,1.87
2019-03-04T23:05:58.782Z,1.43
2019-03-04T23:08:26.474Z,1.80
2019-03-04T23:10:54.232Z,1.70
2019-03-04T23:13:48.187Z,1.60
2019-03-04T23:16:18.932Z,1.90
2019-03-04T23:18:46.851Z,1.67
2019-03-04T23:21:14.515Z,1.50
2019-03-04T23:23:43.989Z,1.73
2019-03-04T23:26:11.842Z,1.90
2019-03-04T23:28:39.491Z,1.50
2019-03-04T23:31:09.848Z,1.93
2019-03-04T23:33:37.587Z,1.53
2019-03-04T23:36:05.202Z,1.90
2019-03-04T23:38:33.158Z,2.10
2019-03-04T23:41:00.840Z,1.60
2019-03-04T23:43:28.789Z,1.87
2019-03-04T23:45:56.472Z,2.10
2019-03-04T23:48:24.146Z,1.73
2019-03-04T23:50:52.135Z,1.40
2019-03-04T23:53:19.803Z,1.33
2019-03-04T23:55:47.423Z,1.20
2019-03-04T23:58:15.052Z,1.47
